| time (UTC) | temp F | wind direction | speed knots | gust knots | rain 1hr in | rain 24hr in | rain mn in | humidity % | barometer mb |
| 20260510205126 | 71 | 343 | 5.2 | 7.0 | 0.00 | 0.03 | 0.03 | 40 | 1016.4 |
| 20260510204622 | 72 | 34 | 1.7 | 2.6 | 0.00 | 0.03 | 0.03 | 44 | 1016.3 |
| 20260510204119 | 73 | 20 | 1.7 | 2.6 | 0.00 | 0.03 | 0.03 | 39 | 1016.3 |
| 20260510203615 | 72 | 223 | 2.6 | 2.6 | 0.00 | 0.03 | 0.03 | 45 | 1016.3 |
| 20260510203113 | 71 | 21 | 1.7 | 2.6 | 0.00 | 0.03 | 0.03 | 41 | 1016.4 |
| 20260510202612 | 69 | 333 | 5.2 | 7.0 | 0.00 | 0.03 | 0.03 | 43 | 1016.4 |
| 20260510202108 | 71 | 49 | 2.6 | 2.6 | 0.00 | 0.03 | 0.03 | 42 | 1016.4 |
| 20260510201605 | 71 | 296 | 3.5 | 3.5 | 0.00 | 0.03 | 0.03 | 44 | 1016.3 |
| 20260510201102 | 71 | 19 | 7.0 | 8.7 | 0.00 | 0.03 | 0.03 | 42 | 1016.3 |
| 20260510200558 | 70 | 202 | 0.9 | 0.9 | 0.00 | 0.03 | 0.03 | 43 | 1016.3 |
| 20260510200056 | 69 | 194 | 0.9 | 1.7 | 0.00 | 0.03 | 0.03 | 49 | 1016.4 |
| 20260510195554 | 70 | 106 | 0.0 | 1.7 | 0.00 | 0.03 | 0.03 | 47 | 1016.5 |
| 20260510195050 | 71 | 140 | 1.7 | 1.7 | 0.00 | 0.03 | 0.03 | 45 | 1016.4 |
| 20260510194544 | 71 | 157 | 1.7 | 1.7 | 0.00 | 0.03 | 0.03 | 50 | 1016.3 |
| 20260510194042 | 71 | 353 | 3.5 | 5.2 | 0.00 | 0.03 | 0.03 | 47 | 1016.4 |
| 20260510193541 | 71 | 200 | 0.9 | 1.7 | 0.00 | 0.03 | 0.03 | 46 | 1016.8 |
| 20260510193037 | 70 | 313 | 1.7 | 2.6 | 0.00 | 0.03 | 0.03 | 48 | 1016.7 |
| 20260510192537 | 70 | 122 | 3.5 | 3.5 | 0.00 | 0.03 | 0.03 | 49 | 1016.8 |
| 20260510192033 | 70 | 345 | 3.5 | 3.5 | 0.00 | 0.03 | 0.03 | 47 | 1016.8 |
| 20260510191530 | 71 | 133 | 0.9 | 0.9 | 0.00 | 0.03 | 0.03 | 50 | 1016.8 |
| 20260510191027 | 70 | 35 | 2.6 | 3.5 | 0.00 | 0.03 | 0.03 | 52 | 1016.8 |
| 20260510190524 | 71 | 322 | 5.2 | 7.0 | 0.00 | 0.03 | 0.03 | 50 | 1016.8 |
| 20260510190022 | 70 | 332 | 2.6 | 5.2 | 0.00 | 0.03 | 0.03 | 50 | 1016.7 |
| 20260510185518 | 70 | 6 | 5.2 | 7.0 | 0.00 | 0.03 | 0.03 | 50 | 1016.8 |
| 20260510185015 | 70 | 61 | 4.3 | 6.1 | 0.00 | 0.03 | 0.03 | 49 | 1016.7 |
| 20260510184513 | 70 | 245 | 2.6 | 3.5 | 0.00 | 0.03 | 0.03 | 51 | 1016.6 |
| 20260510184008 | 70 | 156 | 2.6 | 2.6 | 0.00 | 0.03 | 0.03 | 47 | 1016.8 |
| 20260510183504 | 70 | 234 | 1.7 | 1.7 | 0.00 | 0.03 | 0.03 | 47 | 1016.7 |
| 20260510182959 | 71 | 193 | 2.6 | 2.6 | 0.00 | 0.03 | 0.03 | 46 | 1016.8 |
| 20260510182456 | 70 | 309 | 1.7 | 2.6 | 0.00 | 0.03 | 0.03 | 49 | 1017.0 |
| 20260510181951 | 70 | 162 | 1.7 | 1.7 | 0.00 | 0.03 | 0.03 | 52 | 1017.0 |
| 20260510181450 | 69 | 192 | 0.0 | 0.0 | 0.00 | 0.03 | 0.03 | 50 | 1017.0 |
| 20260510180945 | 68 | 196 | 0.0 | 0.0 | 0.00 | 0.03 | 0.03 | 50 | 1016.8 |
| 20260510180442 | 69 | 138 | 2.6 | 2.6 | 0.00 | 0.03 | 0.03 | 51 | 1016.7 |
| 20260510175939 | 68 | 104 | 2.6 | 2.6 | 0.00 | 0.03 | 0.03 | 52 | 1016.8 |
| 20260510175435 | 68 | 151 | 1.7 | 1.7 | 0.00 | 0.03 | 0.03 | 55 | 1016.8 |
| 20260510174931 | 68 | 324 | 3.5 | 3.5 | 0.00 | 0.03 | 0.03 | 52 | 1016.7 |
| 20260510174429 | 68 | 205 | 1.7 | 1.7 | 0.00 | 0.03 | 0.03 | 53 | 1016.8 |
| 20260510173925 | 68 | 93 | 1.7 | 2.6 | 0.00 | 0.03 | 0.03 | 53 | 1016.8 |
| 20260510173421 | 68 | 125 | 3.5 | 5.2 | 0.00 | 0.03 | 0.03 | 53 | 1016.8 |
| 20260510172918 | 68 | 113 | 3.5 | 3.5 | 0.00 | 0.03 | 0.03 | 52 | 1017.0 |
| 20260510172414 | 67 | 239 | 2.6 | 3.5 | 0.00 | 0.03 | 0.03 | 51 | 1017.1 |
| 20260510171910 | 67 | 350 | 3.5 | 3.5 | 0.00 | 0.03 | 0.03 | 54 | 1016.8 |
| 20260510171408 | 67 | 182 | 0.9 | 1.7 | 0.00 | 0.03 | 0.03 | 58 | 1016.7 |
| 20260510170904 | 67 | 175 | 0.9 | 0.9 | 0.00 | 0.03 | 0.03 | 62 | 1016.8 |
| 20260510170401 | 67 | 165 | 2.6 | 3.5 | 0.00 | 0.03 | 0.03 | 57 | 1016.9 |
| 20260510165856 | 66 | 69 | 1.7 | 2.6 | 0.00 | 0.03 | 0.03 | 66 | 1017.0 |
| 20260510165352 | 67 | 336 | 3.5 | 5.2 | 0.00 | 0.03 | 0.03 | 61 | 1017.0 |
| 20260510164850 | 66 | 19 | 2.6 | 3.5 | 0.00 | 0.03 | 0.03 | 60 | 1016.9 |
| 20260510164347 | 66 | 62 | 2.6 | 2.6 | 0.00 | 0.03 | 0.03 | 63 | 1016.7 |
| 20260510163846 | 65 | 209 | 0.9 | 1.7 | 0.00 | 0.03 | 0.03 | 69 | 1016.9 |
| 20260510163344 | 65 | 242 | 1.7 | 1.7 | 0.00 | 0.03 | 0.03 | 67 | 1017.0 |
| 20260510162843 | 64 | 354 | 5.2 | 6.1 | 0.00 | 0.03 | 0.03 | 70 | 1017.0 |
| 20260510162341 | 63 | 260 | 1.7 | 2.6 | 0.00 | 0.03 | 0.03 | 69 | 1017.1 |
| 20260510161836 | 64 | 204 | 0.9 | 0.9 | 0.00 | 0.03 | 0.03 | 76 | 1017.0 |
| 20260510161332 | 63 | 80 | 1.7 | 1.7 | 0.00 | 0.03 | 0.03 | 71 | 1017.0 |
| 20260510160830 | 64 | 292 | 1.7 | 2.6 | 0.00 | 0.03 | 0.03 | 72 | 1017.1 |
| 20260510160321 | 63 | 146 | 0.9 | 1.7 | 0.00 | 0.03 | 0.03 | 75 | 1016.9 |
| 20260510155820 | 64 | 152 | 0.0 | 0.9 | 0.00 | 0.03 | 0.03 | 75 | 1017.0 |
| 20260510155318 | 62 | 135 | 0.9 | 0.9 | 0.00 | 0.03 | 0.03 | 79 | 1016.8 |
| 20260510154813 | 63 | 206 | 0.9 | 0.9 | 0.00 | 0.03 | 0.03 | 78 | 1016.5 |
| 20260510154309 | 62 | 351 | 2.6 | 2.6 | 0.00 | 0.03 | 0.03 | 80 | 1016.7 |
| 20260510153803 | 62 | 178 | 0.0 | 0.0 | 0.00 | 0.03 | 0.03 | 81 | 1016.7 |
| 20260510153300 | 62 | 340 | 1.7 | 2.6 | 0.00 | 0.03 | 0.03 | 83 | 1016.6 |
| 20260510152757 | 61 | 197 | 0.9 | 0.9 | 0.00 | 0.03 | 0.03 | 81 | 1016.5 |
| 20260510152253 | 62 | 279 | 1.7 | 1.7 | 0.00 | 0.03 | 0.03 | 84 | 1016.3 |
| 20260510151749 | 62 | 343 | 2.6 | 2.6 | 0.00 | 0.03 | 0.03 | 85 | 1016.4 |
| 20260510151248 | 60 | 157 | 0.9 | 1.7 | 0.00 | 0.03 | 0.03 | 83 | 1016.1 |
| 20260510150743 | 61 | 171 | 0.0 | 0.0 | 0.00 | 0.03 | 0.03 | 86 | 1016.2 |
| 20260510150240 | 60 | 209 | 0.9 | 0.9 | 0.00 | 0.03 | 0.03 | 89 | 1015.8 |
| 20260510145736 | 60 | 228 | 0.9 | 1.7 | 0.00 | 0.03 | 0.03 | 87 | 1015.9 |
| 20260510145232 | 60 | 226 | 1.7 | 1.7 | 0.00 | 0.03 | 0.03 | 88 | 1015.7 |
| 20260510144723 | 60 | 161 | 0.9 | 0.9 | 0.00 | 0.03 | 0.03 | 89 | 1015.5 |
| 20260510144220 | 59 | 194 | 0.0 | 0.0 | 0.00 | 0.03 | 0.03 | 89 | 1015.7 |
| 20260510143714 | 59 | 161 | 0.9 | 0.9 | 0.00 | 0.03 | 0.03 | 90 | 1015.6 |
| 20260510143211 | 59 | 326 | 1.7 | 2.6 | 0.00 | 0.03 | 0.03 | 93 | 1015.5 |
| 20260510142707 | 58 | 193 | 0.9 | 1.7 | 0.00 | 0.03 | 0.03 | 95 | 1015.6 |
| 20260510142204 | 58 | 225 | 1.7 | 1.7 | 0.00 | 0.03 | 0.03 | 96 | 1015.4 |
| 20260510141701 | 57 | 204 | 0.9 | 0.9 | 0.00 | 0.03 | 0.03 | 96 | 1015.6 |
| 20260510141200 | 57 | 198 | 0.9 | 0.9 | 0.00 | 0.03 | 0.03 | 97 | 1015.6 |
| 20260510140655 | 58 | 184 | 0.0 | 0.0 | 0.00 | 0.03 | 0.03 | 97 | 1015.5 |
| 20260510140155 | 57 | 183 | 0.0 | 0.0 | 0.05 | 0.03 | 0.03 | 97 | 1015.3 |
| 20260510135650 | 57 | 183 | 0.0 | 0.9 | 0.05 | 0.03 | 0.03 | 97 | 1015.3 |
| 20260510135146 | 57 | 183 | 0.0 | 0.0 | 0.00 | 0.02 | 0.02 | 96 | 1015.4 |
| 20260510134644 | 57 | 184 | 0.0 | 0.0 | 0.07 | 0.02 | 0.02 | 96 | 1015.5 |
| 20260510134141 | 57 | 183 | 0.0 | 0.0 | 0.12 | 0.02 | 0.02 | 95 | 1015.8 |
| 20260510133637 | 57 | 181 | 0.0 | 0.9 | 0.05 | 0.01 | 0.01 | 94 | 1015.8 |
| 20260510133132 | 58 | 161 | 0.0 | 0.9 | 0.00 | 0.00 | 0.00 | 92 | 1015.6 |
| 20260510132629 | 57 | 184 | 0.0 | 0.9 | 0.00 | 0.00 | 0.00 | 94 | 1015.9 |
| 20260510132127 | 57 | 192 | 0.0 | 0.0 | 0.00 | 0.00 | 0.00 | 97 | 1015.2 |
| 20260510131624 | 57 | 194 | 0.9 | 0.9 | 0.00 | 0.00 | 0.00 | 98 | 1015.1 |
| 20260510131121 | 57 | 185 | 0.0 | 0.0 | 0.00 | 0.00 | 0.00 | 98 | 1015.2 |
| 20260510130617 | 57 | 169 | 0.0 | 0.9 | 0.00 | 0.00 | 0.00 | 99 | 1014.8 |
| 20260510130115 | 57 | 189 | 0.0 | 0.0 | 0.00 | 0.00 | 0.00 | 99 | 1015.0 |
| 20260510125611 | 57 | 189 | 0.0 | 0.0 | 0.00 | 0.00 | 0.00 | 99 | 1015.1 |
| 20260510125107 | 56 | 190 | 0.0 | 0.0 | 0.00 | 0.00 | 0.00 | 99 | 1015.0 |
| 20260510124604 | 55 | 190 | 0.0 | 0.0 | 0.00 | 0.00 | 0.00 | 99 | 1015.1 |
| 20260510124101 | 55 | 189 | 0.0 | 0.0 | 0.00 | 0.00 | 0.00 | 99 | 1014.7 |
| 20260510123556 | 55 | 189 | 0.0 | 0.0 | 0.00 | 0.00 | 0.00 | 99 | 1014.7 |
| 20260510123053 | 55 | 189 | 0.0 | 0.0 | 0.00 | 0.00 | 0.00 | 99 | 1014.9 |
| 20260510122548 | 54 | 189 | 0.0 | 0.0 | 0.00 | 0.00 | 0.00 | 99 | 1014.7 |
| 20260510122045 | 54 | 189 | 0.0 | 0.0 | 0.00 | 0.00 | 0.00 | 99 | 1014.5 |
| 20260510121542 | 54 | 189 | 0.0 | 0.0 | 0.00 | 0.00 | 0.00 | 99 | 1014.9 |
| 20260510121039 | 53 | 189 | 0.0 | 0.0 | 0.00 | 0.00 | 0.00 | 99 | 1014.5 |
| 20260510120537 | 53 | 189 | 0.0 | 0.0 | 0.00 | 0.00 | 0.00 | 99 | 1014.5 |
| 20260510120032 | 53 | 189 | 0.0 | 0.0 | 0.00 | 0.00 | 0.00 | 99 | 1014.4 |
| 20260510115529 | 52 | 189 | 0.0 | 0.0 | 0.00 | 0.00 | 0.00 | 99 | 1014.3 |
| 20260510115026 | 52 | 189 | 0.0 | 0.0 | 0.00 | 0.00 | 0.00 | 99 | 1014.5 |
| 20260510114522 | 52 | 189 | 0.0 | 0.0 | 0.00 | 0.00 | 0.00 | 99 | 1014.2 |
| 20260510114018 | 51 | 189 | 0.0 | 0.0 | 0.00 | 0.00 | 0.00 | 99 | 1014.1 |
| 20260510113513 | 51 | 189 | 0.0 | 0.0 | 0.00 | 0.00 | 0.00 | 99 | 1014.0 |
| 20260510113011 | 50 | 190 | 0.0 | 0.0 | 0.00 | 0.00 | 0.00 | 99 | 1013.8 |
| 20260510112508 | 50 | 190 | 0.0 | 0.0 | 0.00 | 0.00 | 0.00 | 99 | 1013.9 |
| 20260510112004 | 50 | 189 | 0.0 | 0.0 | 0.00 | 0.00 | 0.00 | 99 | 1013.7 |
| 20260510111500 | 50 | 189 | 0.0 | 0.0 | 0.00 | 0.00 | 0.00 | 99 | 1013.7 |
| 20260510110956 | 49 | 189 | 0.0 | 0.0 | 0.00 | 0.00 | 0.00 | 99 | 1013.6 |
| 20260510110453 | 49 | 189 | 0.0 | 0.0 | 0.00 | 0.00 | 0.00 | 99 | 1013.5 |
| 20260510105949 | 49 | 189 | 0.0 | 0.0 | 0.00 | 0.00 | 0.00 | 99 | 1013.1 |
| 20260510105444 | 49 | 189 | 0.0 | 0.0 | 0.00 | 0.00 | 0.00 | 99 | 1013.1 |
| 20260510104940 | 49 | 189 | 0.0 | 0.0 | 0.00 | 0.00 | 0.00 | 99 | 1013.0 |
| 20260510104437 | 48 | 189 | 0.0 | 0.0 | 0.00 | 0.00 | 0.00 | 99 | 1013.0 |
| 20260510103933 | 48 | 189 | 0.0 | 0.0 | 0.00 | 0.00 | 0.00 | 99 | 1013.0 |
| 20260510103432 | 48 | 201 | 0.0 | 0.0 | 0.00 | 0.00 | 0.00 | 99 | 1012.9 |
| 20260510102931 | 48 | 201 | 0.0 | 0.0 | 0.00 | 0.00 | 0.00 | 99 | 1012.8 |
| 20260510102428 | 48 | 201 | 0.0 | 0.0 | 0.00 | 0.00 | 0.00 | 99 | 1012.9 |
| 20260510101925 | 48 | 201 | 0.0 | 0.0 | 0.00 | 0.00 | 0.00 | 99 | 1012.6 |
| 20260510101423 | 48 | 201 | 0.0 | 0.0 | 0.00 | 0.00 | 0.00 | 99 | 1012.7 |
| 20260510100921 | 48 | 201 | 0.0 | 0.0 | 0.00 | 0.00 | 0.00 | 99 | 1012.8 |
| 20260510100417 | 48 | 201 | 0.0 | 0.0 | 0.00 | 0.00 | 0.00 | 99 | 1012.6 |
| 20260510095913 | 47 | 201 | 0.0 | 0.0 | 0.00 | 0.00 | 0.00 | 99 | 1012.5 |
| 20260510095408 | 47 | 201 | 0.0 | 0.0 | 0.00 | 0.00 | 0.00 | 99 | 1012.4 |
| 20260510094908 | 48 | 201 | 0.0 | 0.0 | 0.00 | 0.00 | 0.00 | 99 | 1012.5 |
| 20260510094403 | 48 | 201 | 0.0 | 0.0 | 0.00 | 0.00 | 0.00 | 99 | 1012.4 |
| 20260510093859 | 48 | 201 | 0.0 | 0.0 | 0.00 | 0.00 | 0.00 | 99 | 1012.2 |
| 20260510093355 | 48 | 201 | 0.0 | 0.0 | 0.00 | 0.00 | 0.00 | 99 | 1012.2 |
| 20260510092852 | 48 | 201 | 0.0 | 0.0 | 0.00 | 0.00 | 0.00 | 99 | 1012.2 |
| 20260510092348 | 48 | 201 | 0.0 | 0.0 | 0.00 | 0.00 | 0.00 | 99 | 1012.0 |
| 20260510091843 | 48 | 201 | 0.0 | 0.0 | 0.00 | 0.00 | 0.00 | 99 | 1011.8 |
| 20260510091341 | 48 | 201 | 0.0 | 0.0 | 0.00 | 0.00 | 0.00 | 99 | 1011.9 |
| 20260510090837 | 48 | 201 | 0.0 | 0.0 | 0.00 | 0.00 | 0.00 | 99 | 1011.7 |
| 20260510090329 | 48 | 201 | 0.0 | 0.0 | 0.00 | 0.00 | 0.00 | 99 | 1011.7 |
| 20260510085824 | 48 | 201 | 0.0 | 0.0 | 0.00 | 0.00 | 0.00 | 99 | 1011.7 |
| 20260510085318 | 48 | 201 | 0.0 | 0.0 | 0.00 | 0.00 | 0.00 | 99 | 1011.6 |
| 20260510084815 | 48 | 201 | 0.0 | 0.0 | 0.00 | 0.00 | 0.00 | 99 | 1011.8 |
| 20260510084312 | 48 | 201 | 0.0 | 0.0 | 0.00 | 0.00 | 0.00 | 99 | 1011.6 |
| 20260510083809 | 49 | 201 | 0.0 | 0.0 | 0.00 | 0.00 | 0.00 | 99 | 1011.8 |
| 20260510083306 | 49 | 201 | 0.0 | 0.0 | 0.00 | 0.00 | 0.00 | 99 | 1011.5 |
| 20260510082801 | 48 | 201 | 0.0 | 0.0 | 0.00 | 0.00 | 0.00 | 99 | 1011.6 |
| 20260510082258 | 48 | 201 | 0.0 | 0.0 | 0.00 | 0.00 | 0.00 | 99 | 1011.5 |
| 20260510081756 | 49 | 201 | 0.0 | 0.0 | 0.00 | 0.00 | 0.00 | 99 | 1011.6 |
| 20260510081253 | 48 | 201 | 0.0 | 0.0 | 0.00 | 0.00 | 0.00 | 99 | 1011.4 |
| 20260510080749 | 49 | 201 | 0.0 | 0.0 | 0.00 | 0.00 | 0.00 | 99 | 1011.7 |
| 20260510080244 | 49 | 201 | 0.0 | 0.0 | 0.00 | 0.00 | 0.00 | 99 | 1011.6 |
| 20260510075741 | 49 | 201 | 0.0 | 0.0 | 0.00 | 0.00 | 0.00 | 99 | 1011.6 |
| 20260510075239 | 49 | 201 | 0.0 | 0.0 | 0.00 | 0.00 | 0.00 | 99 | 1011.5 |
| 20260510074736 | 49 | 201 | 0.0 | 0.0 | 0.00 | 0.00 | 0.00 | 99 | 1011.7 |
| 20260510074232 | 49 | 201 | 0.0 | 0.0 | 0.00 | 0.00 | 0.00 | 99 | 1011.6 |
| 20260510073728 | 49 | 201 | 0.0 | 0.0 | 0.00 | 0.00 | 0.00 | 99 | 1011.7 |
| 20260510073224 | 49 | 201 | 0.0 | 0.0 | 0.00 | 0.00 | 0.00 | 99 | 1011.5 |
| 20260510072720 | 49 | 201 | 0.0 | 0.0 | 0.00 | 0.00 | 0.00 | 99 | 1011.5 |
| 20260510072217 | 49 | 201 | 0.0 | 0.0 | 0.00 | 0.00 | 0.00 | 99 | 1011.6 |
| 20260510071714 | 49 | 201 | 0.0 | 0.0 | 0.00 | 0.00 | 0.00 | 99 | 1011.3 |
| 20260510071210 | 49 | 201 | 0.0 | 0.0 | 0.00 | 0.00 | 0.00 | 99 | 1011.3 |
| 20260510070709 | 49 | 201 | 0.0 | 0.0 | 0.00 | 0.00 | 0.00 | 99 | 1011.2 |
| 20260510070205 | 49 | 201 | 0.0 | 0.0 | 0.00 | 0.00 | 0.00 | 99 | 1011.4 |
| 20260510065700 | 49 | 201 | 0.0 | 0.0 | 0.00 | 0.00 | 0.00 | 99 | 1011.4 |
| 20260510065157 | 49 | 201 | 0.0 | 0.0 | 0.00 | 0.00 | 0.00 | 99 | 1011.3 |
| 20260510064653 | 49 | 201 | 0.0 | 0.0 | 0.00 | 0.00 | 0.00 | 99 | 1011.3 |
| 20260510064151 | 49 | 201 | 0.0 | 0.0 | 0.00 | 0.00 | 0.00 | 99 | 1011.4 |
| 20260510063648 | 50 | 201 | 0.0 | 0.0 | 0.00 | 0.00 | 0.00 | 99 | 1011.3 |
| 20260510063144 | 50 | 201 | 0.0 | 0.0 | 0.00 | 0.00 | 0.00 | 99 | 1011.6 |
| 20260510062640 | 50 | 201 | 0.0 | 0.0 | 0.00 | 0.00 | 0.00 | 99 | 1011.7 |
| 20260510062137 | 50 | 201 | 0.0 | 0.0 | 0.00 | 0.00 | 0.00 | 99 | 1011.2 |
| 20260510061632 | 50 | 201 | 0.0 | 0.0 | 0.00 | 0.00 | 0.00 | 99 | 1011.1 |
| 20260510061130 | 50 | 201 | 0.0 | 0.0 | 0.00 | 0.00 | 0.00 | 99 | 1011.4 |
| 20260510060625 | 50 | 201 | 0.0 | 0.0 | 0.00 | 0.00 | 0.00 | 99 | 1011.2 |
| 20260510060122 | 50 | 201 | 0.0 | 0.0 | 0.00 | 0.00 | 0.00 | 99 | 1011.2 |
| 20260510055618 | 50 | 201 | 0.0 | 0.0 | 0.00 | 0.00 | 0.00 | 99 | 1011.3 |
| 20260510055117 | 50 | 201 | 0.0 | 0.0 | 0.00 | 0.00 | 0.00 | 99 | 1011.2 |
| 20260510054611 | 50 | 201 | 0.0 | 0.0 | 0.00 | 0.00 | 0.00 | 99 | 1011.3 |
| 20260510054107 | 50 | 201 | 0.0 | 0.0 | 0.00 | 0.00 | 0.00 | 99 | 1011.5 |
| 20260510053606 | 50 | 201 | 0.0 | 0.0 | 0.00 | 0.00 | 0.00 | 99 | 1011.2 |
| 20260510053103 | 50 | 201 | 0.0 | 0.0 | 0.00 | 0.00 | 0.00 | 99 | 1011.3 |
| 20260510052559 | 50 | 201 | 0.0 | 0.0 | 0.00 | 0.00 | 0.00 | 99 | 1011.1 |
| 20260510052056 | 50 | 201 | 0.0 | 0.0 | 0.00 | 0.00 | 0.00 | 99 | 1011.2 |
| 20260510051551 | 50 | 201 | 0.0 | 0.0 | 0.00 | 0.00 | 0.00 | 99 | 1011.3 |
| 20260510051049 | 50 | 201 | 0.0 | 0.0 | 0.00 | 0.00 | 0.00 | 98 | 1011.3 |
| 20260510050546 | 50 | 201 | 0.0 | 0.0 | 0.00 | 0.00 | 0.00 | 98 | 1011.2 |
| 20260510050043 | 50 | 201 | 0.0 | 0.0 | 0.00 | 0.00 | 0.00 | 98 | 1011.3 |
| 20260510045540 | 50 | 201 | 0.0 | 0.0 | 0.00 | 0.00 | 0.00 | 98 | 1011.3 |
| 20260510045036 | 50 | 201 | 0.0 | 0.0 | 0.00 | 0.00 | 0.00 | 98 | 1011.3 |
| 20260510044533 | 50 | 201 | 0.0 | 0.0 | 0.00 | 0.00 | 0.00 | 98 | 1011.2 |
| 20260510044030 | 50 | 201 | 0.0 | 0.0 | 0.00 | 0.00 | 0.00 | 98 | 1011.3 |
| 20260510043525 | 50 | 201 | 0.0 | 0.0 | 0.00 | 0.00 | 0.00 | 98 | 1011.2 |
| 20260510043021 | 50 | 201 | 0.0 | 0.0 | 0.00 | 0.00 | 0.00 | 98 | 1011.2 |
| 20260510042515 | 50 | 201 | 0.0 | 0.0 | 0.00 | 0.00 | 0.00 | 98 | 1011.2 |
| 20260510042010 | 50 | 201 | 0.0 | 0.0 | 0.00 | 0.00 | 0.00 | 98 | 1011.2 |
| 20260510041509 | 50 | 201 | 0.0 | 0.0 | 0.00 | 0.00 | 0.00 | 98 | 1011.4 |
| 20260510041006 | 50 | 201 | 0.0 | 0.0 | 0.00 | 0.00 | 0.00 | 98 | 1011.1 |
| 20260510040502 | 51 | 201 | 0.0 | 0.0 | 0.00 | 0.00 | 0.00 | 98 | 1011.3 |
| 20260510035958 | 50 | 201 | 0.0 | 0.0 | 0.00 | 0.25 | 0.25 | 98 | 1011.2 |
| 20260510035455 | 50 | 201 | 0.0 | 0.0 | 0.00 | 0.25 | 0.25 | 98 | 1011.5 |
| 20260510034954 | 50 | 201 | 0.0 | 0.0 | 0.00 | 0.25 | 0.25 | 98 | 1011.4 |
| 20260510034453 | 51 | 201 | 0.0 | 0.0 | 0.00 | 0.25 | 0.25 | 98 | 1011.1 |
| 20260510033949 | 51 | 201 | 0.0 | 0.0 | 0.00 | 0.25 | 0.25 | 97 | 1011.2 |
| 20260510033445 | 51 | 201 | 0.0 | 0.0 | 0.00 | 0.25 | 0.25 | 97 | 1011.2 |
| 20260510032943 | 51 | 201 | 0.0 | 0.0 | 0.00 | 0.25 | 0.25 | 97 | 1011.2 |
| 20260510032439 | 51 | 201 | 0.0 | 0.0 | 0.00 | 0.25 | 0.25 | 97 | 1011.2 |
| 20260510031939 | 51 | 201 | 0.0 | 0.0 | 0.00 | 0.25 | 0.25 | 97 | 1011.1 |
| 20260510031435 | 51 | 201 | 0.0 | 0.0 | 0.00 | 0.25 | 0.25 | 97 | 1011.1 |
| 20260510030931 | 51 | 201 | 0.0 | 0.0 | 0.00 | 0.25 | 0.25 | 97 | 1011.0 |
| 20260510030426 | 51 | 201 | 0.0 | 0.0 | 0.00 | 0.25 | 0.25 | 97 | 1010.9 |
| 20260510025924 | 51 | 201 | 0.0 | 0.0 | 0.00 | 0.25 | 0.25 | 97 | 1010.9 |
| 20260510025421 | 52 | 201 | 0.0 | 0.0 | 0.00 | 0.25 | 0.25 | 97 | 1010.8 |
| 20260510024919 | 51 | 201 | 0.0 | 0.0 | 0.00 | 0.25 | 0.25 | 96 | 1010.9 |
| 20260510024415 | 51 | 201 | 0.0 | 0.0 | 0.00 | 0.25 | 0.25 | 96 | 1010.9 |
| 20260510023911 | 52 | 201 | 0.0 | 0.0 | 0.00 | 0.25 | 0.25 | 96 | 1011.1 |
| 20260510023408 | 52 | 201 | 0.0 | 0.0 | 0.00 | 0.25 | 0.25 | 96 | 1010.7 |
| 20260510022905 | 52 | 201 | 0.0 | 0.0 | 0.00 | 0.25 | 0.25 | 96 | 1010.8 |
| 20260510022404 | 52 | 201 | 0.0 | 0.0 | 0.00 | 0.25 | 0.25 | 96 | 1010.6 |
| 20260510021903 | 52 | 201 | 0.0 | 0.0 | 0.00 | 0.25 | 0.25 | 95 | 1010.6 |
| 20260510021401 | 52 | 201 | 0.0 | 0.0 | 0.00 | 0.25 | 0.25 | 95 | 1010.7 |
| 20260510020857 | 53 | 201 | 0.0 | 0.0 | 0.00 | 0.25 | 0.25 | 95 | 1010.6 |
| 20260510020353 | 53 | 201 | 0.0 | 0.0 | 0.00 | 0.25 | 0.25 | 95 | 1010.6 |
| 20260510015848 | 53 | 201 | 0.0 | 0.0 | 0.00 | 0.25 | 0.25 | 95 | 1010.5 |
| 20260510015344 | 53 | 201 | 0.0 | 0.0 | 0.00 | 0.25 | 0.25 | 94 | 1010.4 |
| 20260510014840 | 53 | 201 | 0.0 | 0.0 | 0.00 | 0.25 | 0.25 | 94 | 1010.2 |
| 20260510014337 | 53 | 201 | 0.0 | 0.0 | 0.00 | 0.25 | 0.25 | 94 | 1009.9 |
| 20260510013833 | 54 | 201 | 0.0 | 0.0 | 0.00 | 0.25 | 0.25 | 93 | 1010.0 |
| 20260510013329 | 54 | 201 | 0.0 | 0.0 | 0.00 | 0.25 | 0.25 | 93 | 1010.0 |
| 20260510012824 | 54 | 201 | 0.0 | 0.0 | 0.00 | 0.25 | 0.25 | 92 | 1009.9 |
| 20260510012323 | 54 | 201 | 0.0 | 0.0 | 0.00 | 0.25 | 0.25 | 92 | 1009.6 |
| 20260510011818 | 55 | 201 | 0.0 | 0.0 | 0.00 | 0.25 | 0.25 | 91 | 1009.6 |
| 20260510011314 | 55 | 201 | 0.0 | 0.0 | 0.00 | 0.25 | 0.25 | 91 | 1009.8 |
| 20260510010811 | 55 | 201 | 0.0 | 0.0 | 0.00 | 0.25 | 0.25 | 91 | 1009.4 |
| 20260510010308 | 55 | 201 | 0.0 | 0.0 | 0.00 | 0.25 | 0.25 | 90 | 1009.4 |
| 20260510005805 | 55 | 201 | 0.0 | 0.0 | 0.00 | 0.25 | 0.25 | 90 | 1009.4 |
| 20260510005301 | 56 | 201 | 0.0 | 0.0 | 0.00 | 0.25 | 0.25 | 89 | 1009.3 |
| 20260510004759 | 57 | 201 | 0.0 | 0.0 | 0.00 | 0.25 | 0.25 | 90 | 1009.2 |
| 20260510004256 | 57 | 201 | 0.0 | 0.0 | 0.00 | 0.25 | 0.25 | 88 | 1009.2 |
| 20260510003753 | 58 | 201 | 0.0 | 0.0 | 0.00 | 0.25 | 0.25 | 86 | 1009.0 |
| 20260510003250 | 59 | 201 | 0.0 | 0.0 | 0.00 | 0.25 | 0.25 | 86 | 1008.9 |
| 20260510002748 | 59 | 201 | 0.0 | 0.0 | 0.00 | 0.25 | 0.25 | 82 | 1009.0 |
| 20260510002247 | 60 | 201 | 0.0 | 0.0 | 0.00 | 0.25 | 0.25 | 83 | 1008.8 |
| 20260510001743 | 61 | 201 | 0.0 | 0.0 | 0.00 | 0.25 | 0.25 | 78 | 1008.8 |
| 20260510001242 | 62 | 201 | 0.0 | 0.0 | 0.00 | 0.25 | 0.25 | 79 | 1008.7 |
| 20260510000737 | 62 | 201 | 0.0 | 0.0 | 0.00 | 0.25 | 0.25 | 76 | 1008.6 |
| 20260510000235 | 64 | 201 | 0.9 | 0.9 | 0.00 | 0.25 | 0.25 | 74 | 1008.7 |
| 20260509235731 | 64 | 200 | 0.0 | 0.0 | 0.00 | 0.25 | 0.25 | 70 | 1008.6 |
| 20260509235227 | 65 | 201 | 0.9 | 0.9 | 0.00 | 0.25 | 0.25 | 65 | 1008.7 |
| 20260509234723 | 66 | 192 | 0.0 | 0.0 | 0.00 | 0.25 | 0.25 | 64 | 1008.6 |
| 20260509234221 | 67 | 190 | 0.9 | 0.9 | 0.00 | 0.25 | 0.25 | 62 | 1008.6 |
| 20260509233719 | 67 | 201 | 0.0 | 0.9 | 0.00 | 0.25 | 0.25 | 62 | 1008.6 |
| 20260509233216 | 68 | 187 | 0.9 | 0.9 | 0.00 | 0.25 | 0.25 | 57 | 1008.4 |
| 20260509232712 | 69 | 207 | 2.6 | 2.6 | 0.00 | 0.25 | 0.25 | 54 | 1008.7 |
| 20260509232209 | 70 | 215 | 0.9 | 1.7 | 0.00 | 0.25 | 0.25 | 52 | 1008.5 |
| 20260509231700 | 69 | 178 | 2.6 | 3.5 | 0.00 | 0.25 | 0.25 | 54 | 1008.5 |
| 20260509231158 | 69 | 192 | 0.9 | 0.9 | 0.00 | 0.25 | 0.25 | 55 | 1008.5 |
| 20260509230654 | 69 | 195 | 0.0 | 0.0 | 0.00 | 0.25 | 0.25 | 56 | 1008.2 |
| 20260509230151 | 69 | 212 | 1.7 | 1.7 | 0.00 | 0.25 | 0.25 | 54 | 1008.3 |
| 20260509225647 | 70 | 178 | 0.0 | 0.9 | 0.00 | 0.25 | 0.25 | 53 | 1008.2 |
| 20260509225142 | 71 | 187 | 3.5 | 3.5 | 0.00 | 0.25 | 0.25 | 50 | 1008.4 |
| 20260509224638 | 71 | 188 | 1.7 | 2.6 | 0.00 | 0.25 | 0.25 | 50 | 1008.5 |
| 20260509224135 | 72 | 186 | 1.7 | 1.7 | 0.00 | 0.25 | 0.25 | 50 | 1008.3 |
| 20260509223632 | 72 | 149 | 0.0 | 0.9 | 0.00 | 0.25 | 0.25 | 53 | 1008.4 |
| 20260509223130 | 72 | 203 | 1.7 | 1.7 | 0.00 | 0.25 | 0.25 | 50 | 1008.4 |
| 20260509222627 | 72 | 183 | 0.9 | 0.9 | 0.00 | 0.25 | 0.25 | 50 | 1008.4 |
| 20260509222122 | 72 | 196 | 0.9 | 0.9 | 0.00 | 0.25 | 0.25 | 52 | 1008.4 |
| 20260509221618 | 73 | 191 | 0.9 | 0.9 | 0.00 | 0.25 | 0.25 | 51 | 1008.4 |
| 20260509221114 | 73 | 181 | 1.7 | 2.6 | 0.00 | 0.25 | 0.25 | 50 | 1008.5 |
| 20260509220610 | 73 | 185 | 0.9 | 1.7 | 0.00 | 0.25 | 0.25 | 48 | 1008.6 |
| 20260509220107 | 73 | 134 | 2.6 | 2.6 | 0.00 | 0.25 | 0.25 | 47 | 1008.6 |
| 20260509215602 | 73 | 178 | 0.9 | 1.7 | 0.00 | 0.25 | 0.25 | 47 | 1008.6 |
| 20260509215100 | 73 | 182 | 1.7 | 1.7 | 0.00 | 0.25 | 0.25 | 50 | 1008.5 |
| 20260509214557 | 73 | 178 | 3.5 | 3.5 | 0.00 | 0.25 | 0.25 | 48 | 1008.7 |
| 20260509214053 | 72 | 166 | 0.9 | 1.7 | 0.00 | 0.25 | 0.25 | 48 | 1008.8 |
| 20260509213549 | 73 | 196 | 1.7 | 1.7 | 0.00 | 0.25 | 0.25 | 49 | 1008.8 |
| 20260509213046 | 73 | 147 | 2.6 | 2.6 | 0.00 | 0.25 | 0.25 | 47 | 1008.8 |
| 20260509212544 | 73 | 145 | 1.7 | 3.5 | 0.00 | 0.25 | 0.25 | 47 | 1008.7 |
| 20260509212041 | 73 | 181 | 2.6 | 2.6 | 0.00 | 0.25 | 0.25 | 47 | 1008.8 |
| 20260509211536 | 72 | 138 | 1.7 | 2.6 | 0.00 | 0.25 | 0.25 | 51 | 1008.7 |
| 20260509211033 | 71 | 197 | 0.9 | 1.7 | 0.00 | 0.25 | 0.25 | 49 | 1008.8 |
| 20260509210530 | 70 | 206 | 0.0 | 0.9 | 0.00 | 0.25 | 0.25 | 53 | 1009.0 |
| 20260509210026 | 72 | 163 | 0.9 | 0.9 | 0.00 | 0.25 | 0.25 | 51 | 1008.8 |
| 20260509205526 | 73 | 174 | 0.0 | 0.9 | 0.00 | 0.25 | 0.25 | 48 | 1008.8 |